createdAt,value
2023-02-05T05:22:08.903Z,-80
2023-02-05T05:24:37.397Z,-83
2023-02-05T05:27:06.008Z,-82
2023-02-05T05:29:34.302Z,-82
2023-02-05T05:32:03.195Z,-82
2023-02-05T05:34:31.681Z,-82
2023-02-05T05:37:00.477Z,-82
2023-02-05T05:39:47.725Z,-82
2023-02-05T05:42:33.214Z,-82
2023-02-05T05:45:01.522Z,-81
2023-02-05T05:47:29.970Z,-83
2023-02-05T05:49:58.474Z,-83
2023-02-05T05:52:27.052Z,-83
2023-02-05T05:54:56.931Z,-83
2023-02-05T05:57:26.177Z,-83
2023-02-05T05:59:54.967Z,-83
2023-02-05T06:02:23.606Z,-82
2023-02-05T06:04:52.828Z,-83
2023-02-05T06:07:21.295Z,-82
2023-02-05T06:09:49.541Z,-83
2023-02-05T06:12:19.322Z,-83
2023-02-05T06:14:47.979Z,-83
2023-02-05T06:17:16.257Z,-83
2023-02-05T06:19:44.616Z,-83
2023-02-05T06:22:13.258Z,-83
2023-02-05T06:24:41.474Z,-82
2023-02-05T06:27:09.785Z,-82
2023-02-05T06:29:43.586Z,-83
2023-02-05T06:32:12.054Z,-82
2023-02-05T06:34:40.312Z,-83
2023-02-05T06:37:08.959Z,-83
2023-02-05T06:39:37.567Z,-83
2023-02-05T06:42:06.725Z,-83
2023-02-05T06:44:35.403Z,-83
2023-02-05T06:47:05.475Z,-83
2023-02-05T06:49:33.965Z,-83
2023-02-05T06:52:02.427Z,-83
2023-02-05T06:54:30.781Z,-83
2023-02-05T06:56:59.359Z,-83
2023-02-05T06:59:27.912Z,-83
2023-02-05T07:01:56.419Z,-83
2023-02-05T07:04:26.882Z,-82
2023-02-05T07:06:56.471Z,-83
2023-02-05T07:09:25.361Z,-83
2023-02-05T07:11:53.974Z,-82
2023-02-05T07:14:22.422Z,-82
2023-02-05T07:16:51.702Z,-82
2023-02-05T07:19:20.072Z,-82
2023-02-05T07:21:51.049Z,-83
2023-02-05T07:24:19.555Z,-82
2023-02-05T07:26:48.744Z,-82
2023-02-05T07:29:17.188Z,-82
2023-02-05T07:31:46.151Z,-82
2023-02-05T07:34:14.630Z,-83
2023-02-05T07:36:43.320Z,-82
2023-02-05T07:39:16.314Z,-82
2023-02-05T07:41:44.887Z,-82
2023-02-05T07:44:13.543Z,-82
2023-02-05T07:46:42.228Z,-83
2023-02-05T07:49:11.654Z,-82
2023-02-05T07:51:40.159Z,-82
2023-02-05T07:54:09.488Z,-82
2023-02-05T07:56:40.194Z,-82
2023-02-05T07:59:08.722Z,-82
2023-02-05T08:01:37.364Z,-81
2023-02-05T08:04:06.620Z,-83
2023-02-05T08:06:35.629Z,-83
2023-02-05T08:09:04.193Z,-82
2023-02-05T08:11:33.769Z,-82
2023-02-05T08:14:04.364Z,-83
2023-02-05T08:16:32.798Z,-82
2023-02-05T08:19:01.558Z,-82
2023-02-05T08:21:30.394Z,-81
2023-02-05T08:24:00.407Z,-80
2023-02-05T08:26:28.999Z,-80
2023-02-05T08:28:58.840Z,-81
2023-02-05T08:31:29.568Z,-82
2023-02-05T08:34:00.212Z,-82
2023-02-05T08:36:29.771Z,-82
2023-02-05T08:38:58.833Z,-82
2023-02-05T08:41:27.378Z,-82
2023-02-05T08:43:56.489Z,-82
2023-02-05T08:46:31.617Z,-81
2023-02-05T08:49:07.408Z,-82
2023-02-05T08:51:36.944Z,-82
2023-02-05T08:54:05.930Z,-83
2023-02-05T08:56:34.237Z,-83
2023-02-05T08:59:02.961Z,-83
2023-02-05T09:01:31.731Z,-83
2023-02-05T09:04:00.320Z,-83
2023-02-05T09:06:30.881Z,-83
2023-02-05T09:08:59.158Z,-83
2023-02-05T09:11:28.220Z,-83
2023-02-05T09:13:56.909Z,-84
2023-02-05T09:16:26.984Z,-84
2023-02-05T09:18:55.757Z,-84
2023-02-05T09:21:24.556Z,-82
2023-02-05T09:23:54.892Z,-83
2023-02-05T09:26:24.116Z,-83
2023-02-05T09:28:52.646Z,-84
2023-02-05T09:31:22.263Z,-82
2023-02-05T09:33:50.859Z,-83
2023-02-05T09:36:20.768Z,-84
2023-02-05T09:38:49.738Z,-84
2023-02-05T09:41:27.185Z,-84
2023-02-05T09:43:58.115Z,-84
2023-02-05T09:46:33.512Z,-84
2023-02-05T09:49:04.475Z,-84
2023-02-05T09:51:36.178Z,-84
2023-02-05T09:54:14.146Z,-83
2023-02-05T09:56:44.854Z,-84
2023-02-05T09:59:17.712Z,-83
2023-02-05T10:01:51.076Z,-83
2023-02-05T10:04:20.103Z,-83
2023-02-05T10:07:14.325Z,-83
2023-02-05T10:10:03.204Z,-84
2023-02-05T10:12:41.548Z,-84
2023-02-05T10:15:22.692Z,-83
2023-02-05T10:17:59.954Z,-84
2023-02-05T10:20:52.018Z,-84
2023-02-05T10:23:34.177Z,-86
2023-02-05T10:26:10.957Z,-85
2023-02-05T10:29:06.397Z,-85
2023-02-05T10:31:45.362Z,-84
2023-02-05T10:34:36.186Z,-84
2023-02-05T10:39:36.472Z,-83
2023-02-05T10:42:12.791Z,-82
2023-02-05T10:44:45.929Z,-82
2023-02-05T10:47:17.484Z,-82
2023-02-05T10:49:51.672Z,-82
2023-02-05T10:52:20.763Z,-82
2023-02-05T10:54:49.610Z,-84
2023-02-05T10:57:21.735Z,-83
2023-02-05T10:59:54.965Z,-83
2023-02-05T11:02:27.851Z,-82
2023-02-05T11:04:59.676Z,-82
2023-02-05T11:07:33.358Z,-83
2023-02-05T11:10:16.271Z,-82
2023-02-05T11:12:46.344Z,-83
2023-02-05T11:15:24.849Z,-82
2023-02-05T11:17:55.636Z,-83
2023-02-05T11:20:27.753Z,-82
2023-02-05T11:25:55.203Z,-86
2023-02-05T11:28:26.176Z,-84
2023-02-05T11:30:56.792Z,-85
2023-02-05T11:33:31.420Z,-84
2023-02-05T11:36:04.842Z,-87
2023-02-05T11:38:41.786Z,-84
2023-02-05T11:41:10.943Z,-85
2023-02-05T11:43:42.329Z,-85
2023-02-05T11:46:17.311Z,-86
2023-02-05T11:48:47.809Z,-86
2023-02-05T11:51:17.342Z,-84
2023-02-05T11:53:52.830Z,-85
2023-02-05T11:56:25.148Z,-85
2023-02-05T11:59:01.371Z,-85
2023-02-05T12:01:34.638Z,-86
2023-02-05T12:07:04.731Z,-87
2023-02-05T12:09:33.098Z,-86
2023-02-05T12:12:08.931Z,-86
2023-02-05T12:17:42.129Z,-86
2023-02-05T12:20:27.836Z,-85
2023-02-05T12:23:25.757Z,-86
2023-02-05T12:26:27.751Z,-85
2023-02-05T12:29:06.322Z,-86
2023-02-05T12:31:47.130Z,-84
2023-02-05T12:34:36.421Z,-85
2023-02-05T12:37:27.792Z,-85
2023-02-05T12:40:03.055Z,-85
2023-02-05T12:42:34.900Z,-86
2023-02-05T12:45:27.799Z,-86
2023-02-05T12:48:07.287Z,-86
2023-02-05T12:50:54.944Z,-85
2023-02-05T12:53:37.626Z,-85
2023-02-05T12:56:40.683Z,-86
2023-02-05T12:59:14.793Z,-87
2023-02-05T13:01:47.135Z,-86
2023-02-05T13:04:22.738Z,-86
2023-02-05T13:06:57.095Z,-86
2023-02-05T13:09:31.077Z,-86
2023-02-05T13:12:05.144Z,-87
2023-02-05T13:14:38.172Z,-86
2023-02-05T13:17:14.248Z,-86
2023-02-05T13:19:45.512Z,-85
2023-02-05T13:22:37.522Z,-87
2023-02-05T13:25:39.123Z,-86
2023-02-05T13:28:42.973Z,-85
2023-02-05T13:31:15.784Z,-86
2023-02-05T13:33:44.777Z,-86
2023-02-05T13:36:43.437Z,-86
2023-02-05T13:39:35.109Z,-86
2023-02-05T13:42:34.327Z,-85
2023-02-05T13:45:29.312Z,-86
2023-02-05T13:48:12.503Z,-85
2023-02-05T13:51:00.359Z,-87
2023-02-05T13:53:39.425Z,-87
2023-02-05T13:56:27.923Z,-85
2023-02-05T13:58:57.677Z,-87
2023-02-05T14:01:31.276Z,-85
2023-02-05T14:04:02.615Z,-85
2023-02-05T14:06:33.917Z,-85
2023-02-05T14:09:05.759Z,-86
2023-02-05T14:11:57.614Z,-86
2023-02-05T14:14:32.124Z,-86
2023-02-05T14:17:01.517Z,-85
2023-02-05T14:19:56.118Z,-86
2023-02-05T14:22:39.502Z,-86
2023-02-05T14:25:42.809Z,-85
2023-02-05T14:28:40.372Z,-86
2023-02-05T14:31:08.860Z,-85
2023-02-05T14:33:40.704Z,-85
2023-02-05T14:36:35.109Z,-86
2023-02-05T14:39:06.589Z,-86
2023-02-05T14:41:50.907Z,-87
2023-02-05T14:44:23.638Z,-87
2023-02-05T14:47:02.640Z,-87
2023-02-05T14:49:39.099Z,-86
2023-02-05T14:52:10.232Z,-85
2023-02-05T14:54:48.862Z,-86
2023-02-05T14:57:24.244Z,-86
2023-02-05T14:59:56.545Z,-85
2023-02-05T15:02:50.563Z,-87
2023-02-05T15:05:20.971Z,-86
2023-02-05T15:07:50.224Z,-86
2023-02-05T15:10:25.142Z,-86
2023-02-05T15:13:00.150Z,-85
2023-02-05T15:15:35.879Z,-87
2023-02-05T15:18:07.384Z,-86
2023-02-05T15:20:39.802Z,-86
2023-02-05T15:23:19.554Z,-86
2023-02-05T15:25:53.609Z,-85
2023-02-05T15:28:34.314Z,-85
2023-02-05T15:31:27.942Z,-86
2023-02-05T15:34:02.064Z,-85
2023-02-05T15:36:35.924Z,-87
2023-02-05T15:39:15.795Z,-86
2023-02-05T15:41:46.490Z,-87
2023-02-05T15:44:24.036Z,-85
2023-02-05T15:46:54.275Z,-87
2023-02-05T15:49:30.258Z,-85
2023-02-05T15:51:58.934Z,-85
2023-02-05T15:54:27.642Z,-85
2023-02-05T15:56:56.772Z,-85
2023-02-05T15:59:35.592Z,-85
2023-02-05T16:02:09.118Z,-85
2023-02-05T16:04:40.264Z,-85
2023-02-05T16:07:20.826Z,-86
2023-02-05T16:09:52.932Z,-85
2023-02-05T16:12:22.271Z,-85
2023-02-05T16:14:59.964Z,-84
2023-02-05T16:17:33.652Z,-84
2023-02-05T16:20:16.505Z,-84
2023-02-05T16:22:46.981Z,-84
2023-02-05T16:25:29.297Z,-85
2023-02-05T16:27:58.331Z,-85
2023-02-05T16:30:32.526Z,-85
2023-02-05T16:33:03.726Z,-84
2023-02-05T16:35:34.333Z,-85
2023-02-05T16:38:09.174Z,-85
2023-02-05T16:40:43.274Z,-85
2023-02-05T16:43:31.058Z,-85
2023-02-05T16:46:24.998Z,-86
2023-02-05T16:48:57.321Z,-85
2023-02-05T16:51:38.625Z,-85
2023-02-05T16:54:30.244Z,-84
2023-02-05T16:57:02.721Z,-86
2023-02-05T16:59:33.808Z,-85
2023-02-05T17:03:13.455Z,-85
2023-02-05T17:05:44.606Z,-85
2023-02-05T17:08:13.791Z,-86
2023-02-05T17:10:51.989Z,-86
2023-02-05T17:13:29.904Z,-86
2023-02-05T17:15:58.460Z,-85
2023-02-05T17:18:29.433Z,-86
2023-02-05T17:21:22.815Z,-87
2023-02-05T17:23:52.065Z,-85
2023-02-05T17:26:21.208Z,-85
2023-02-05T17:28:56.481Z,-85
2023-02-05T17:31:26.590Z,-85
2023-02-05T17:33:56.468Z,-85
2023-02-05T17:36:26.895Z,-85
2023-02-05T17:38:55.488Z,-87
2023-02-05T17:41:43.507Z,-87
2023-02-05T17:44:13.647Z,-85
2023-02-05T17:46:42.196Z,-85
2023-02-05T17:49:11.298Z,-86
2023-02-05T17:51:42.480Z,-86
2023-02-05T17:54:15.198Z,-85
2023-02-05T17:56:44.745Z,-85
2023-02-05T17:59:14.054Z,-86
2023-02-05T18:01:42.603Z,-85
2023-02-05T18:04:12.038Z,-85
2023-02-05T18:06:44.402Z,-85
2023-02-05T18:09:13.238Z,-85
2023-02-05T18:11:44.109Z,-85
2023-02-05T18:14:13.053Z,-85
2023-02-05T18:16:42.306Z,-85
2023-02-05T18:19:11.051Z,-85
2023-02-05T18:21:47.283Z,-85
2023-02-05T18:24:15.800Z,-85
2023-02-05T18:26:45.704Z,-86
2023-02-05T18:29:15.266Z,-85
2023-02-05T18:31:44.867Z,-87
2023-02-05T18:34:13.672Z,-85
2023-02-05T18:36:43.821Z,-84
2023-02-05T18:39:12.333Z,-85
2023-02-05T18:41:43.618Z,-84
2023-02-05T18:44:12.259Z,-86
2023-02-05T18:46:40.828Z,-85
2023-02-05T18:49:09.586Z,-85
2023-02-05T18:51:38.244Z,-87
2023-02-05T18:54:08.729Z,-84
2023-02-05T18:56:37.645Z,-84
2023-02-05T18:59:07.795Z,-85
2023-02-05T19:01:40.320Z,-86
2023-02-05T19:04:13.255Z,-85
2023-02-05T19:06:43.841Z,-85
2023-02-05T19:09:13.636Z,-86
2023-02-05T19:11:47.524Z,-85
2023-02-05T19:14:19.240Z,-86
2023-02-05T19:16:49.075Z,-86
2023-02-05T19:19:21.143Z,-87
2023-02-05T19:21:55.386Z,-87
2023-02-05T19:24:25.347Z,-85
2023-02-05T19:26:59.202Z,-86
2023-02-05T19:29:28.606Z,-86
2023-02-05T19:32:00.590Z,-86
2023-02-05T19:34:29.434Z,-86
2023-02-05T19:36:58.414Z,-86
2023-02-05T19:39:29.162Z,-87
2023-02-05T19:41:57.690Z,-86
2023-02-05T19:44:27.595Z,-88
2023-02-05T19:46:56.156Z,-86
2023-02-05T19:49:26.499Z,-86
2023-02-05T19:51:58.526Z,-86
2023-02-05T19:54:29.713Z,-89
2023-02-05T19:56:58.492Z,-87
2023-02-05T19:59:27.836Z,-86
2023-02-05T20:01:57.782Z,-86
2023-02-05T20:04:30.213Z,-87
2023-02-05T20:07:00.353Z,-85
2023-02-05T20:09:34.616Z,-85
2023-02-05T20:12:03.532Z,-86
2023-02-05T20:14:31.912Z,-86
2023-02-05T20:17:00.705Z,-85
2023-02-05T20:19:31.653Z,-84
2023-02-05T20:22:00.180Z,-85
2023-02-05T20:24:30.002Z,-84
2023-02-05T20:27:18.547Z,-85
2023-02-05T20:30:05.681Z,-85
2023-02-05T20:32:35.164Z,-85
2023-02-05T20:35:04.691Z,-85
2023-02-05T20:37:37.641Z,-84
2023-02-05T20:40:08.740Z,-84
2023-02-05T20:42:37.582Z,-84
2023-02-05T20:45:06.623Z,-85
2023-02-05T20:47:36.518Z,-85
2023-02-05T20:50:05.857Z,-84
2023-02-05T20:52:34.192Z,-85
2023-02-05T20:55:02.529Z,-86
2023-02-05T20:57:50.779Z,-85
2023-02-05T21:00:21.351Z,-86
2023-02-05T21:02:50.211Z,-85
2023-02-05T21:05:21.368Z,-86
2023-02-05T21:07:49.805Z,-85
2023-02-05T21:10:19.576Z,-85
2023-02-05T21:12:50.266Z,-85
2023-02-05T21:15:19.024Z,-86
2023-02-05T21:17:47.365Z,-85
2023-02-05T21:20:15.791Z,-86
2023-02-05T21:22:43.831Z,-86
2023-02-05T21:25:12.436Z,-85
2023-02-05T21:27:41.433Z,-86
2023-02-05T21:30:15.153Z,-85
2023-02-05T21:32:44.101Z,-85
2023-02-05T21:35:12.851Z,-85
2023-02-05T21:37:41.798Z,-85
2023-02-05T21:40:11.930Z,-87
2023-02-05T21:42:40.281Z,-87
2023-02-05T21:45:12.211Z,-86
2023-02-05T21:47:40.560Z,-86
2023-02-05T21:50:10.052Z,-87
2023-02-05T21:52:38.280Z,-86
2023-02-05T21:55:07.188Z,-85
2023-02-05T21:57:35.909Z,-86
2023-02-05T22:00:04.787Z,-85
2023-02-05T22:02:35.013Z,-84
2023-02-05T22:05:04.745Z,-86
2023-02-05T22:07:33.246Z,-85
2023-02-05T22:10:01.900Z,-86
2023-02-05T22:12:30.707Z,-87
2023-02-05T22:14:59.550Z,-86
2023-02-05T22:17:31.410Z,-86
2023-02-05T22:20:01.663Z,-86
2023-02-05T22:22:30.348Z,-86
2023-02-05T22:24:59.156Z,-86
2023-02-05T22:27:29.932Z,-86
2023-02-05T22:29:58.534Z,-86
2023-02-05T22:32:29.200Z,-85
2023-02-05T22:35:00.888Z,-85
2023-02-05T22:37:31.250Z,-86
2023-02-05T22:39:59.840Z,-85
2023-02-05T22:42:28.586Z,-85
2023-02-05T22:44:57.175Z,-85
2023-02-05T22:47:25.727Z,-86
